Terminal Aerodrome Forecast
Issued by NWS

Home | Current Version | Previous Version | Text Only | Print | Product List | Glossary On
Versions: 1 2 3 4 5 6 7 8 9 10 11 12 13 14 15 16
000
FTAK31 PANC 221345 AAA
TAFADL
TAF AMD
PADL 221345Z 2214/2312 VRB05KT P6SM SCT006 BKN070 OVC110
      TEMPO 2214/2216 -RA BKN006
     FM221600 18008KT P6SM -RA SCT015 OVC025
     FM222100 19008G15KT P6SM VCSH BKN025 OVC050
     FM230100 20012G22KT P6SM SCT025 BKN050 OVC100=

USA.gov is the U.S. government's official web portal to all federal, state and local government web resources and services.